Time;durP1;ratioP1;P1;durP2;ratioP2;P2;SDS_P1;SDS_P2;PMS_P1;PMS_P2;Temp;Humidity;BMP_temperature;BMP_pressure;BME280_temperature;BME280_humidity;BME280_pressure;Samples;Min_cycle;Max_cycle;Signal;HPM_P1;HPM_P2
2023/12/29 00:00:49;;;;;;;0.20;0.00;;;;;;;;;;5023716;28;20505;-85
2023/12/29 00:03:15;;;;;;;0.20;0.10;;;;;;;;;;5026595;28;20167;-85
2023/12/29 00:05:41;;;;;;;0.20;0.00;;;;;;;;;;5004432;28;20054;-84
2023/12/29 00:08:07;;;;;;;0.20;0.08;;;;;;;;;;5006460;28;20072;-84
2023/12/29 00:10:33;;;;;;;0.20;0.10;;;;;;;;;;5002417;28;20524;-82
2023/12/29 00:13:00;;;;;;;0.20;0.10;;;;;;;;;;5004613;28;20068;-87
2023/12/29 00:15:26;;;;;;;0.73;0.32;;;;;;;;;;5006033;28;21766;-85
2023/12/29 00:17:52;;;;;;;2.47;1.30;;;;;;;;;;5019980;28;20041;-84
2023/12/29 00:20:18;;;;;;;0.20;0.00;;;;;;;;;;5004509;28;20425;-84
2023/12/29 00:22:44;;;;;;;0.38;0.30;;;;;;;;;;5009391;28;20396;-87
2023/12/29 00:25:11;;;;;;;2.95;1.45;;;;;;;;;;5018614;28;20044;-84
2023/12/29 00:27:37;;;;;;;0.20;0.03;;;;;;;;;;5018597;28;20048;-83
2023/12/29 00:30:03;;;;;;;0.20;0.00;;;;;;;;;;5023959;28;20405;-84
2023/12/29 00:32:29;;;;;;;0.20;0.00;;;;;;;;;;5006092;28;20029;-84
2023/12/29 00:34:55;;;;;;;0.52;0.32;;;;;;;;;;5023344;28;20034;-84
2023/12/29 00:37:21;;;;;;;0.20;0.10;;;;;;;;;;5008026;28;20042;-84
2023/12/29 00:39:47;;;;;;;0.20;0.20;;;;;;;;;;5006355;28;20402;-84
2023/12/29 00:42:14;;;;;;;0.20;0.10;;;;;;;;;;5008199;28;20045;-84
2023/12/29 00:44:39;;;;;;;0.20;0.10;;;;;;;;;;5019736;28;20099;-83
2023/12/29 00:47:06;;;;;;;0.20;0.10;;;;;;;;;;5007908;28;20034;-84
2023/12/29 00:49:32;;;;;;;0.90;0.43;;;;;;;;;;5012336;28;20048;-84
2023/12/29 00:51:58;;;;;;;0.20;0.00;;;;;;;;;;5020308;28;20497;-85
2023/12/29 00:54:24;;;;;;;0.20;0.10;;;;;;;;;;5022485;28;20041;-84
2023/12/29 00:56:50;;;;;;;0.40;0.30;;;;;;;;;;5021644;28;20171;-85
2023/12/29 00:59:16;;;;;;;0.20;0.00;;;;;;;;;;5007332;28;20072;-84
2023/12/29 01:01:44;;;;;;;0.20;0.10;;;;;;;;;;5004774;28;20099;-84
2023/12/29 01:04:10;;;;;;;0.20;0.00;;;;;;;;;;5010178;28;20045;-83
2023/12/29 01:06:36;;;;;;;0.28;0.22;;;;;;;;;;5022611;28;20041;-86
2023/12/29 01:09:02;;;;;;;0.20;0.10;;;;;;;;;;5025060;28;20405;-86
2023/12/29 01:11:28;;;;;;;0.20;0.10;;;;;;;;;;5009293;28;20485;-85
2023/12/29 01:13:54;;;;;;;1.08;0.15;;;;;;;;;;5002558;28;20044;-84
2023/12/29 01:16:20;;;;;;;0.20;0.00;;;;;;;;;;5019548;28;20076;-87
2023/12/29 01:18:46;;;;;;;0.30;0.30;;;;;;;;;;5017269;28;20041;-85
2023/12/29 01:21:12;;;;;;;0.20;0.00;;;;;;;;;;5021948;28;20076;-89
2023/12/29 01:23:38;;;;;;;0.20;0.10;;;;;;;;;;5008152;28;20045;-84
2023/12/29 01:26:04;;;;;;;0.20;0.10;;;;;;;;;;5009697;28;20077;-84
2023/12/29 01:28:31;;;;;;;0.20;0.10;;;;;;;;;;5028485;28;20045;-86
2023/12/29 01:30:57;;;;;;;0.20;0.00;;;;;;;;;;5006608;28;20569;-84
2023/12/29 01:33:23;;;;;;;0.20;0.10;;;;;;;;;;5019822;28;20113;-84
2023/12/29 01:35:49;;;;;;;0.20;0.10;;;;;;;;;;5022018;28;20042;-84
2023/12/29 01:38:15;;;;;;;0.20;0.10;;;;;;;;;;5008476;28;20095;-86
2023/12/29 01:40:45;;;;;;;0.20;0.10;;;;;;;;;;5028230;28;20502;-85
2023/12/29 01:43:11;;;;;;;0.22;0.22;;;;;;;;;;5013049;28;20128;-87
2023/12/29 01:45:37;;;;;;;0.20;0.00;;;;;;;;;;5024339;28;20034;-84
2023/12/29 01:48:03;;;;;;;0.20;0.00;;;;;;;;;;5013521;28;20082;-88
2023/12/29 01:50:29;;;;;;;0.20;0.10;;;;;;;;;;5012250;28;20033;-86
2023/12/29 01:52:56;;;;;;;0.20;0.08;;;;;;;;;;5013600;28;20045;-83
2023/12/29 01:55:23;;;;;;;0.25;0.25;;;;;;;;;;5013724;28;20120;-84
2023/12/29 01:57:49;;;;;;;0.20;0.10;;;;;;;;;;5007920;28;20045;-86
2023/12/29 02:00:19;;;;;;;0.20;0.03;;;;;;;;;;5009784;28;22107;-89
2023/12/29 02:02:48;;;;;;;0.20;0.00;;;;;;;;;;5013246;28;20041;-85
2023/12/29 02:05:15;;;;;;;0.20;0.10;;;;;;;;;;5028502;28;20060;-86
2023/12/29 02:07:42;;;;;;;0.20;0.10;;;;;;;;;;5007203;28;20053;-87
2023/12/29 02:10:09;;;;;;;0.20;0.10;;;;;;;;;;5009716;28;20034;-85
2023/12/29 02:12:38;;;;;;;0.20;0.10;;;;;;;;;;5026688;28;20041;-87
2023/12/29 02:15:06;;;;;;;0.20;0.00;;;;;;;;;;5028528;28;20073;-85
2023/12/29 02:17:36;;;;;;;0.65;0.65;;;;;;;;;;5011613;28;20037;-85
2023/12/29 02:20:02;;;;;;;0.20;0.10;;;;;;;;;;5026352;28;20561;-85
2023/12/29 02:22:28;;;;;;;0.20;0.00;;;;;;;;;;5013965;28;20045;-83
2023/12/29 02:24:56;;;;;;;0.20;0.10;;;;;;;;;;5012953;28;20044;-86
2023/12/29 02:27:22;;;;;;;0.30;0.13;;;;;;;;;;5007948;28;20044;-87
2023/12/29 02:30:05;;;;;;;0.20;0.10;;;;;;;;;;5004034;28;20108;-85
2023/12/29 02:32:33;;;;;;;0.20;0.10;;;;;;;;;;5013379;28;20038;-88
2023/12/29 02:34:59;;;;;;;0.20;0.00;;;;;;;;;;5029465;28;20033;-86
2023/12/29 02:37:27;;;;;;;0.20;0.00;;;;;;;;;;5008533;28;20044;-87
2023/12/29 02:39:53;;;;;;;0.20;0.10;;;;;;;;;;5003350;28;20045;-84
2023/12/29 02:42:19;;;;;;;0.20;0.00;;;;;;;;;;5026345;28;20524;-84
2023/12/29 02:44:45;;;;;;;0.20;0.00;;;;;;;;;;5004308;28;20042;-86
2023/12/29 02:47:11;;;;;;;0.20;0.00;;;;;;;;;;5010514;28;20117;-85
2023/12/29 02:49:37;;;;;;;0.20;0.00;;;;;;;;;;5011467;28;20057;-86
2023/12/29 02:52:03;;;;;;;0.20;0.00;;;;;;;;;;5011109;28;20049;-87
2023/12/29 02:54:29;;;;;;;0.20;0.05;;;;;;;;;;5009959;28;20041;-86
2023/12/29 02:56:56;;;;;;;0.20;0.20;;;;;;;;;;5012126;28;20304;-85
2023/12/29 02:59:39;;;;;;;0.20;0.10;;;;;;;;;;5025764;28;20617;-87
2023/12/29 03:02:05;;;;;;;0.20;0.10;;;;;;;;;;5009829;28;20099;-87
2023/12/29 03:04:31;;;;;;;0.20;0.00;;;;;;;;;;5013319;28;20044;-85
2023/12/29 03:07:07;;;;;;;0.30;0.10;;;;;;;;;;5011949;28;20034;-84
2023/12/29 03:09:35;;;;;;;1.27;0.82;;;;;;;;;;5017347;28;20413;-84
2023/12/29 03:12:01;;;;;;;0.20;0.05;;;;;;;;;;5023149;28;20413;-85
2023/12/29 03:14:27;;;;;;;0.65;0.40;;;;;;;;;;5008224;28;20041;-86
2023/12/29 03:16:53;;;;;;;0.40;0.30;;;;;;;;;;5022370;28;20045;-86
2023/12/29 03:19:19;;;;;;;0.20;0.00;;;;;;;;;;5009304;28;20033;-84
2023/12/29 03:21:53;;;;;;;0.20;0.00;;;;;;;;;;5010813;28;20116;-87
2023/12/29 03:24:19;;;;;;;0.20;0.00;;;;;;;;;;5020418;28;21550;-86
2023/12/29 03:26:45;;;;;;;0.20;0.00;;;;;;;;;;5025883;28;20111;-88
2023/12/29 03:29:12;;;;;;;0.20;0.00;;;;;;;;;;5024514;28;20460;-88
2023/12/29 03:31:39;;;;;;;0.20;0.10;;;;;;;;;;5010941;28;20033;-87
2023/12/29 03:34:07;;;;;;;0.20;0.05;;;;;;;;;;5009247;28;20104;-85
2023/12/29 03:36:34;;;;;;;0.28;0.28;;;;;;;;;;5022907;28;20037;-84
2023/12/29 03:39:00;;;;;;;0.20;0.00;;;;;;;;;;5010070;28;20048;-85
2023/12/29 03:41:26;;;;;;;0.20;0.10;;;;;;;;;;5005953;28;20045;-85
2023/12/29 03:43:52;;;;;;;0.20;0.10;;;;;;;;;;5009541;28;20504;-82
2023/12/29 03:46:18;;;;;;;0.20;0.00;;;;;;;;;;5016880;28;20128;-86
2023/12/29 03:48:44;;;;;;;0.20;0.00;;;;;;;;;;5012952;28;20029;-89
2023/12/29 03:51:10;;;;;;;0.20;0.03;;;;;;;;;;5024380;28;20128;-87
2023/12/29 03:53:36;;;;;;;1.20;1.10;;;;;;;;;;5006814;28;20072;-85
2023/12/29 03:56:07;;;;;;;0.20;0.10;;;;;;;;;;5024792;28;20049;-83
2023/12/29 03:58:36;;;;;;;0.20;0.00;;;;;;;;;;5007321;28;20122;-85
2023/12/29 04:01:08;;;;;;;0.20;0.10;;;;;;;;;;5012173;28;20041;-86
2023/12/29 04:03:34;;;;;;;0.20;0.10;;;;;;;;;;5021817;28;20171;-86
2023/12/29 04:06:03;;;;;;;0.20;0.00;;;;;;;;;;5022310;28;20045;-86
2023/12/29 04:08:29;;;;;;;0.20;0.10;;;;;;;;;;5017087;28;20819;-84
2023/12/29 04:10:55;;;;;;;0.20;0.10;;;;;;;;;;5022540;28;20124;-86
2023/12/29 04:13:21;;;;;;;0.20;0.10;;;;;;;;;;5022799;28;20044;-84
2023/12/29 04:15:47;;;;;;;0.38;0.38;;;;;;;;;;5019784;28;20033;-85
2023/12/29 04:18:13;;;;;;;0.20;0.00;;;;;;;;;;5021830;28;20060;-86
2023/12/29 04:20:40;;;;;;;0.20;0.10;;;;;;;;;;5015039;28;20029;-85
2023/12/29 04:23:07;;;;;;;0.20;0.10;;;;;;;;;;5025324;28;20126;-84
2023/12/29 04:25:33;;;;;;;0.55;0.38;;;;;;;;;;5006442;28;20061;-86
2023/12/29 04:28:00;;;;;;;0.20;0.00;;;;;;;;;;5006976;28;20038;-87
2023/12/29 04:30:26;;;;;;;1.33;1.23;;;;;;;;;;5020156;28;20049;-84
2023/12/29 04:32:52;;;;;;;0.20;0.00;;;;;;;;;;5005948;28;20029;-82
2023/12/29 04:35:18;;;;;;;0.47;0.47;;;;;;;;;;5002570;28;20414;-84
2023/12/29 04:37:45;;;;;;;0.20;0.00;;;;;;;;;;5005640;28;20048;-85
2023/12/29 04:40:11;;;;;;;0.52;0.52;;;;;;;;;;5022885;28;20057;-84
2023/12/29 04:42:38;;;;;;;0.20;0.10;;;;;;;;;;5008106;28;20510;-87
2023/12/29 04:45:04;;;;;;;0.20;0.17;;;;;;;;;;5008171;28;22079;-86
2023/12/29 04:47:30;;;;;;;0.20;0.10;;;;;;;;;;5006829;28;20041;-86
2023/12/29 04:49:57;;;;;;;1.27;1.17;;;;;;;;;;5017138;28;20046;-86
2023/12/29 04:52:23;;;;;;;0.55;0.25;;;;;;;;;;5009093;28;20104;-83
2023/12/29 04:54:49;;;;;;;0.28;0.28;;;;;;;;;;5020102;28;20557;-84
2023/12/29 04:57:15;;;;;;;0.25;0.25;;;;;;;;;;5003536;28;20071;-84
2023/12/29 04:59:41;;;;;;;0.20;0.10;;;;;;;;;;5006630;28;20096;-83
2023/12/29 05:02:07;;;;;;;0.20;0.10;;;;;;;;;;5015926;28;20136;-88
2023/12/29 05:04:33;;;;;;;0.20;0.10;;;;;;;;;;5007592;28;20148;-85
2023/12/29 05:06:59;;;;;;;0.20;0.00;;;;;;;;;;5020096;28;20054;-84
2023/12/29 05:09:25;;;;;;;0.20;0.10;;;;;;;;;;5008719;28;20038;-86
2023/12/29 05:11:51;;;;;;;0.20;0.00;;;;;;;;;;5015641;28;20045;-84
2023/12/29 05:14:17;;;;;;;0.20;0.05;;;;;;;;;;5009875;28;20566;-83
2023/12/29 05:16:43;;;;;;;0.20;0.10;;;;;;;;;;5029423;28;20041;-83
2023/12/29 05:19:09;;;;;;;0.20;0.05;;;;;;;;;;5026468;28;20438;-86
2023/12/29 05:21:35;;;;;;;0.20;0.10;;;;;;;;;;5028829;28;20049;-82
2023/12/29 05:24:05;;;;;;;0.20;0.03;;;;;;;;;;5027682;28;20060;-86
2023/12/29 05:26:31;;;;;;;0.20;0.00;;;;;;;;;;5009243;28;20042;-85
2023/12/29 05:28:57;;;;;;;0.20;0.00;;;;;;;;;;5025789;28;20730;-86
2023/12/29 05:31:23;;;;;;;0.20;0.10;;;;;;;;;;5010347;28;20100;-83
2023/12/29 05:33:49;;;;;;;0.32;0.32;;;;;;;;;;5014561;28;20124;-84
2023/12/29 05:36:15;;;;;;;0.20;0.10;;;;;;;;;;5010982;28;20033;-85
2023/12/29 05:38:41;;;;;;;0.43;0.20;;;;;;;;;;5015252;28;20107;-83
2023/12/29 05:41:07;;;;;;;0.20;0.00;;;;;;;;;;5012806;28;20046;-86
2023/12/29 05:43:40;;;;;;;0.20;0.00;;;;;;;;;;5054669;22;20024;-83
2023/12/29 05:46:18;;;;;;;0.20;0.17;;;;;;;;;;5042325;28;20047;-85
2023/12/29 05:48:45;;;;;;;0.20;0.00;;;;;;;;;;5048577;28;20052;-85
2023/12/29 05:51:13;;;;;;;0.20;0.00;;;;;;;;;;5032456;28;20037;-85
2023/12/29 05:53:45;;;;;;;0.20;0.03;;;;;;;;;;5025363;28;20132;-85
2023/12/29 05:56:14;;;;;;;0.20;0.10;;;;;;;;;;5036766;28;20516;-86
2023/12/29 05:58:43;;;;;;;0.20;0.10;;;;;;;;;;5036575;28;20067;-85
2023/12/29 06:01:13;;;;;;;0.20;0.10;;;;;;;;;;5014185;28;20052;-85
2023/12/29 06:03:57;;;;;;;0.20;0.00;;;;;;;;;;5016010;28;20107;-85
2023/12/29 06:06:29;;;;;;;0.20;0.00;;;;;;;;;;5030578;28;20041;-82
2023/12/29 06:09:01;;;;;;;0.20;0.00;;;;;;;;;;5017449;28;20084;-86
2023/12/29 06:11:27;;;;;;;0.20;0.00;;;;;;;;;;5018448;28;20044;-84
2023/12/29 06:13:56;;;;;;;0.20;0.00;;;;;;;;;;5034877;28;20034;-85
2023/12/29 06:16:36;;;;;;;0.20;0.08;;;;;;;;;;5017155;28;20501;-86
2023/12/29 06:19:02;;;;;;;0.22;0.03;;;;;;;;;;5035286;28;20034;-85
2023/12/29 06:21:31;;;;;;;0.20;0.10;;;;;;;;;;5029125;28;20037;-83
2023/12/29 06:23:57;;;;;;;0.20;0.10;;;;;;;;;;5012128;28;20056;-86
2023/12/29 06:26:23;;;;;;;0.20;0.00;;;;;;;;;;5031097;28;20041;-83
2023/12/29 06:28:49;;;;;;;0.20;0.10;;;;;;;;;;5014452;28;20073;-86
2023/12/29 06:31:20;;;;;;;0.20;0.10;;;;;;;;;;5009925;28;20041;-85
2023/12/29 06:33:53;;;;;;;0.20;0.10;;;;;;;;;;5014550;28;20044;-84
2023/12/29 06:36:29;;;;;;;0.25;0.25;;;;;;;;;;5031272;28;20041;-84
2023/12/29 06:38:55;;;;;;;2.28;1.45;;;;;;;;;;5031361;28;20072;-84
2023/12/29 06:41:24;;;;;;;0.25;0.10;;;;;;;;;;5029951;28;20064;-85
2023/12/29 06:43:53;;;;;;;0.20;0.07;;;;;;;;;;5029477;28;20045;-85
2023/12/29 06:46:22;;;;;;;0.20;0.00;;;;;;;;;;5024421;28;20048;-87
2023/12/29 06:48:49;;;;;;;0.20;0.20;;;;;;;;;;5030070;28;20589;-85
2023/12/29 06:51:23;;;;;;;0.20;0.03;;;;;;;;;;5011722;28;20121;-85
2023/12/29 06:53:52;;;;;;;0.20;0.00;;;;;;;;;;5015524;28;20033;-81
2023/12/29 06:56:23;;;;;;;0.20;0.00;;;;;;;;;;5017070;28;20033;-88
2023/12/29 06:58:55;;;;;;;0.20;0.10;;;;;;;;;;5031938;28;20049;-86
2023/12/29 07:01:21;;;;;;;0.20;0.00;;;;;;;;;;5011140;28;20095;-84
2023/12/29 07:04:15;;;;;;;0.20;0.10;;;;;;;;;;5024382;28;20057;-85
2023/12/29 07:07:04;;;;;;;0.20;0.10;;;;;;;;;;5013824;28;20037;-86
2023/12/29 07:09:33;;;;;;;0.20;0.00;;;;;;;;;;5009250;28;20045;-87
2023/12/29 07:12:05;;;;;;;0.20;0.00;;;;;;;;;;5016073;28;20041;-83
2023/12/29 07:17:33;;;;;;;0.38;0.35;;;;;;;;;;5022245;28;20041;-84
2023/12/29 07:20:11;;;;;;;1.10;1.08;;;;;;;;;;5022870;28;20423;-85
2023/12/29 07:23:00;;;;;;;0.20;0.00;;;;;;;;;;5036269;28;20038;-85
2023/12/29 07:25:29;;;;;;;2.15;0.63;;;;;;;;;;5030189;28;20052;-88
2023/12/29 07:28:02;;;;;;;0.20;0.10;;;;;;;;;;5033462;28;20041;-86
2023/12/29 07:30:36;;;;;;;0.20;0.00;;;;;;;;;;5007107;28;20034;-87
2023/12/29 07:33:11;;;;;;;0.20;0.10;;;;;;;;;;5013896;28;20140;-83
2023/12/29 07:35:39;;;;;;;0.20;0.00;;;;;;;;;;5029745;28;20030;-83
2023/12/29 07:38:05;;;;;;;0.20;0.00;;;;;;;;;;5014297;28;20976;-84
2023/12/29 07:40:40;;;;;;;0.57;0.57;;;;;;;;;;5012511;28;20120;-84
2023/12/29 07:43:24;;;;;;;0.20;0.10;;;;;;;;;;5025737;28;20049;-87
2023/12/29 07:45:59;;;;;;;0.20;0.03;;;;;;;;;;5015258;28;20037;-85
2023/12/29 07:48:28;;;;;;;0.20;0.10;;;;;;;;;;5027671;28;20061;-84
2023/12/29 07:51:01;;;;;;;0.20;0.00;;;;;;;;;;5028392;28;20057;-86
2023/12/29 07:53:42;;;;;;;0.20;0.00;;;;;;;;;;5021097;28;20104;-84
2023/12/29 07:56:08;;;;;;;0.20;0.15;;;;;;;;;;5029135;28;20049;-83
2023/12/29 07:58:34;;;;;;;0.20;0.05;;;;;;;;;;5031350;28;20049;-85
2023/12/29 08:01:00;;;;;;;0.20;0.10;;;;;;;;;;5013740;28;20510;-84
2023/12/29 08:03:26;;;;;;;0.20;0.03;;;;;;;;;;5030856;28;20044;-84
2023/12/29 08:06:04;;;;;;;0.43;0.43;;;;;;;;;;5016847;28;20036;-85
2023/12/29 08:08:39;;;;;;;0.20;0.10;;;;;;;;;;5011511;28;20116;-85
2023/12/29 08:11:05;;;;;;;0.32;0.32;;;;;;;;;;5014984;28;20037;-85
2023/12/29 08:13:34;;;;;;;0.20;0.13;;;;;;;;;;5018330;28;20052;-85
2023/12/29 08:16:01;;;;;;;0.20;0.10;;;;;;;;;;5029583;28;20033;-83
2023/12/29 08:18:30;;;;;;;0.20;0.00;;;;;;;;;;5027959;28;20052;-87
2023/12/29 08:21:41;;;;;;;0.20;0.03;;;;;;;;;;5004698;28;20040;-88
2023/12/29 08:24:00;;;;;;;0.20;0.00;;;;;;;;;;5024177;28;20029;-83
2023/12/29 08:26:26;;;;;;;0.20;0.10;;;;;;;;;;5008775;28;20124;-85
2023/12/29 08:29:06;;;;;;;0.20;0.00;;;;;;;;;;5010689;28;20029;-88
2023/12/29 08:31:32;;;;;;;0.20;0.03;;;;;;;;;;5002665;28;20135;-85
2023/12/29 08:34:01;;;;;;;0.43;0.43;;;;;;;;;;5026931;28;20437;-85
2023/12/29 08:36:27;;;;;;;0.28;0.22;;;;;;;;;;5012768;28;20521;-85
2023/12/29 08:38:53;;;;;;;0.20;0.10;;;;;;;;;;5004558;28;20042;-84
2023/12/29 08:41:19;;;;;;;0.20;0.10;;;;;;;;;;5026288;28;20493;-85
2023/12/29 08:43:45;;;;;;;0.20;0.00;;;;;;;;;;5001692;28;20045;-85
2023/12/29 08:46:17;;;;;;;2.05;1.95;;;;;;;;;;5024261;28;20052;-83
2023/12/29 08:48:43;;;;;;;0.20;0.10;;;;;;;;;;5010446;28;20033;-82
2023/12/29 08:51:11;;;;;;;0.20;0.00;;;;;;;;;;5032989;28;20090;-85
2023/12/29 08:54:03;;;;;;;0.20;0.00;;;;;;;;;;5011481;28;20034;-84
2023/12/29 08:56:52;;;;;;;0.20;0.20;;;;;;;;;;5011271;28;21613;-82
2023/12/29 08:59:21;;;;;;;0.30;0.20;;;;;;;;;;5006916;28;20057;-87
2023/12/29 09:02:05;;;;;;;0.20;0.00;;;;;;;;;;5028069;28;20092;-84
2023/12/29 09:04:31;;;;;;;0.20;0.00;;;;;;;;;;5009942;28;20493;-86
2023/12/29 09:06:59;;;;;;;0.20;0.00;;;;;;;;;;5016364;28;20060;-86
2023/12/29 09:09:37;;;;;;;0.90;0.90;;;;;;;;;;5007649;28;20310;-85
2023/12/29 09:12:04;;;;;;;3.50;0.15;;;;;;;;;;5009213;28;20060;-85
2023/12/29 09:14:39;;;;;;;0.20;0.00;;;;;;;;;;5028194;28;20029;-87
2023/12/29 09:17:05;;;;;;;0.20;0.10;;;;;;;;;;5019580;28;20041;-84
2023/12/29 09:19:40;;;;;;;0.20;0.10;;;;;;;;;;5038614;28;20049;-85
2023/12/29 09:22:06;;;;;;;0.20;0.08;;;;;;;;;;5013875;28;20037;-85
2023/12/29 09:24:40;;;;;;;0.38;0.30;;;;;;;;;;5014610;28;20041;-85
2023/12/29 09:27:14;;;;;;;0.20;0.00;;;;;;;;;;5016503;28;20539;-86
2023/12/29 09:29:49;;;;;;;0.20;0.00;;;;;;;;;;5010861;28;20065;-85
2023/12/29 09:32:42;;;;;;;0.30;0.30;;;;;;;;;;5017841;28;20044;-84
2023/12/29 09:35:10;;;;;;;12.35;0.28;;;;;;;;;;5022420;28;20044;-84
2023/12/29 09:37:39;;;;;;;0.20;0.10;;;;;;;;;;5012774;28;20042;-84
2023/12/29 09:40:14;;;;;;;0.20;0.10;;;;;;;;;;5014701;28;20124;-83
2023/12/29 09:42:45;;;;;;;0.20;0.00;;;;;;;;;;5007072;28;20034;-87
2023/12/29 09:45:21;;;;;;;0.20;0.17;;;;;;;;;;5014655;28;20057;-85
2023/12/29 09:47:51;;;;;;;;;;;;;;;;;;5029860;28;20037;-87
2023/12/29 09:50:39;;;;;;;0.20;0.00;;;;;;;;;;5028253;28;19960;-86
2023/12/29 09:53:05;;;;;;;0.20;0.10;;;;;;;;;;5009019;28;20034;-84
2023/12/29 09:55:32;;;;;;;0.20;0.10;;;;;;;;;;5009466;28;20037;-85
2023/12/29 09:58:01;;;;;;;0.20;0.15;;;;;;;;;;5014274;28;20053;-83
2023/12/29 10:00:33;;;;;;;0.20;0.10;;;;;;;;;;5024706;28;20701;-86
2023/12/29 10:03:00;;;;;;;0.20;0.00;;;;;;;;;;5010467;28;20053;-86
2023/12/29 10:05:29;;;;;;;0.30;0.22;;;;;;;;;;5089325;22;20551;-86
2023/12/29 10:08:06;;;;;;;0.20;0.10;;;;;;;;;;5058910;28;20044;-88
2023/12/29 10:10:34;;;;;;;0.47;0.47;;;;;;;;;;5067189;28;20385;-82
2023/12/29 10:13:03;;;;;;;0.20;0.00;;;;;;;;;;5057594;28;20036;-87
2023/12/29 10:16:10;;;;;;;0.20;0.10;;;;;;;;;;5048186;28;20040;-84
2023/12/29 10:19:04;;;;;;;0.20;0.10;;;;;;;;;;5064659;28;20040;-87
2023/12/29 10:21:36;;;;;;;0.20;0.10;;;;;;;;;;5068985;28;20029;-85
2023/12/29 10:24:43;;;;;;;0.20;0.00;;;;;;;;;;5047313;28;20447;-85
2023/12/29 10:27:12;;;;;;;0.20;0.20;;;;;;;;;;4956960;28;20077;-82
2023/12/29 10:29:47;;;;;;;0.20;0.10;;;;;;;;;;5040620;28;20049;-85
2023/12/29 10:32:16;;;;;;;1.70;0.40;;;;;;;;;;5049923;28;20052;-87
2023/12/29 10:34:42;;;;;;;0.20;0.10;;;;;;;;;;5052960;28;20064;-86
2023/12/29 10:37:14;;;;;;;0.28;0.22;;;;;;;;;;5068757;28;20040;-86
2023/12/29 10:40:05;;;;;;;0.20;0.13;;;;;;;;;;5053186;28;20048;-86
2023/12/29 10:42:46;;;;;;;0.20;0.10;;;;;;;;;;5056852;28;20049;-86
2023/12/29 10:45:17;;;;;;;0.20;0.00;;;;;;;;;;5055094;28;20070;-84
2023/12/29 10:47:47;;;;;;;0.20;0.10;;;;;;;;;;5084816;28;20049;-83
2023/12/29 10:50:25;;;;;;;0.20;0.05;;;;;;;;;;5056237;28;20041;-85
2023/12/29 10:53:17;;;;;;;0.20;0.10;;;;;;;;;;5051632;28;20127;-88
2023/12/29 10:55:43;;;;;;;0.20;0.03;;;;;;;;;;5066188;28;20405;-85
2023/12/29 10:58:19;;;;;;;0.20;0.03;;;;;;;;;;5049630;28;20044;-86
2023/12/29 11:00:45;;;;;;;0.45;0.45;;;;;;;;;;5049496;28;20032;-85
2023/12/29 11:03:32;;;;;;;0.60;0.50;;;;;;;;;;5043304;28;20052;-85
2023/12/29 11:06:04;;;;;;;0.20;0.00;;;;;;;;;;5041580;28;20581;-88
2023/12/29 11:08:36;;;;;;;0.20;0.10;;;;;;;;;;5066507;28;20043;-83
2023/12/29 11:11:15;;;;;;;0.35;0.20;;;;;;;;;;5047906;28;20055;-87
2023/12/29 11:13:41;;;;;;;0.35;0.35;;;;;;;;;;5060943;28;20876;-85
2023/12/29 11:16:07;;;;;;;0.20;0.00;;;;;;;;;;5064790;28;20040;-86
2023/12/29 11:18:37;;;;;;;0.20;0.05;;;;;;;;;;5050163;28;20491;-84
2023/12/29 11:21:23;;;;;;;0.20;0.10;;;;;;;;;;5035601;28;20086;-87
2023/12/29 11:24:13;;;;;;;0.20;0.00;;;;;;;;;;5066761;28;20401;-87
2023/12/29 11:26:42;;;;;;;0.95;0.17;;;;;;;;;;5060699;28;20032;-84
2023/12/29 11:29:08;;;;;;;0.20;0.10;;;;;;;;;;5067498;28;20207;-85
2023/12/29 11:31:37;;;;;;;0.20;0.00;;;;;;;;;;5043579;28;20113;-86
2023/12/29 11:34:25;;;;;;;0.47;0.47;;;;;;;;;;5061366;28;20044;-87
2023/12/29 11:37:36;;;;;;;;;;;;;;;;;;;;;
2023/12/29 11:40:21;;;;;;;0.20;0.10;;;;;;;;;;4958740;28;20046;-86
2023/12/29 11:42:53;;;;;;;0.20;0.00;;;;;;;;;;5058324;28;20056;-85
2023/12/29 11:45:26;;;;;;;0.20;0.00;;;;;;;;;;5058786;22;20543;-85
2023/12/29 11:47:56;;;;;;;0.20;0.10;;;;;;;;;;5056560;28;20104;-84
2023/12/29 11:50:48;;;;;;;0.25;0.20;;;;;;;;;;5055363;28;20029;-84
2023/12/29 11:53:32;;;;;;;0.20;0.10;;;;;;;;;;5021989;28;20060;-82
2023/12/29 11:55:58;;;;;;;0.20;0.00;;;;;;;;;;5044083;28;20127;-83
2023/12/29 11:58:25;;;;;;;0.20;0.00;;;;;;;;;;5058697;28;20033;-85
2023/12/29 12:00:51;;;;;;;0.20;0.10;;;;;;;;;;5043088;28;20047;-84
2023/12/29 12:03:25;;;;;;;0.20;0.10;;;;;;;;;;5042107;28;20036;-79
2023/12/29 12:05:51;;;;;;;0.20;0.10;;;;;;;;;;5046317;28;20515;-82
2023/12/29 12:08:28;;;;;;;0.20;0.00;;;;;;;;;;5044199;28;20037;-82
2023/12/29 12:10:54;;;;;;;0.20;0.00;;;;;;;;;;5041778;28;20202;-82
2023/12/29 12:13:42;;;;;;;0.20;0.08;;;;;;;;;;5047791;28;20036;-83
2023/12/29 12:16:08;;;;;;;0.20;0.10;;;;;;;;;;5050021;28;20084;-83
2023/12/29 12:18:34;;;;;;;0.20;0.00;;;;;;;;;;5037355;28;20076;-84
2023/12/29 12:21:01;;;;;;;0.20;0.00;;;;;;;;;;5039150;28;20074;-84
2023/12/29 12:23:28;;;;;;;0.20;0.00;;;;;;;;;;5059049;28;20085;-84
2023/12/29 12:25:59;;;;;;;0.20;0.00;;;;;;;;;;5060985;28;20036;-84
2023/12/29 12:28:26;;;;;;;0.20;0.00;;;;;;;;;;5043802;28;20755;-86
2023/12/29 12:30:53;;;;;;;0.70;0.70;;;;;;;;;;5049925;28;20135;-86
2023/12/29 12:33:25;;;;;;;0.20;0.10;;;;;;;;;;5043562;28;20052;-85
2023/12/29 12:35:59;;;;;;;0.20;0.00;;;;;;;;;;5042205;28;20036;-84
2023/12/29 12:38:25;;;;;;;0.20;0.10;;;;;;;;;;5046946;28;20483;-84
2023/12/29 12:40:51;;;;;;;0.20;0.00;;;;;;;;;;5050778;28;20048;-83
2023/12/29 12:43:18;;;;;;;0.20;0.10;;;;;;;;;;5039285;28;20055;-86
2023/12/29 12:45:54;;;;;;;0.20;0.10;;;;;;;;;;5060753;28;20123;-82
2023/12/29 12:48:22;;;;;;;0.20;0.10;;;;;;;;;;5043730;28;20051;-85
2023/12/29 12:50:49;;;;;;;0.80;0.80;;;;;;;;;;5065669;28;20036;-85
2023/12/29 12:53:20;;;;;;;0.38;0.32;;;;;;;;;;5067770;28;20043;-87
2023/12/29 12:55:49;;;;;;;0.40;0.40;;;;;;;;;;5058705;28;20048;-86
2023/12/29 12:58:15;;;;;;;1.58;1.48;;;;;;;;;;5061788;28;20463;-86
2023/12/29 13:00:45;;;;;;;0.20;0.10;;;;;;;;;;5065719;28;20076;-83
2023/12/29 13:03:11;;;;;;;0.20;0.10;;;;;;;;;;5048603;28;20481;-85
2023/12/29 13:05:37;;;;;;;0.20;0.00;;;;;;;;;;5049105;28;20546;-84
2023/12/29 13:08:03;;;;;;;1.95;0.55;;;;;;;;;;5039864;28;20048;-84
2023/12/29 13:10:30;;;;;;;0.20;0.10;;;;;;;;;;5063679;28;20036;-85
2023/12/29 13:12:56;;;;;;;0.20;0.10;;;;;;;;;;5069568;28;20036;-85
2023/12/29 13:15:23;;;;;;;0.28;0.05;;;;;;;;;;5035457;28;20093;-85
2023/12/29 13:17:53;;;;;;;0.20;0.00;;;;;;;;;;5063247;28;20054;-85
2023/12/29 13:20:19;;;;;;;3.65;0.57;;;;;;;;;;5046098;28;20550;-84
2023/12/29 13:22:50;;;;;;;0.45;0.45;;;;;;;;;;5046943;28;20051;-84
2023/12/29 13:25:28;;;;;;;0.20;0.00;;;;;;;;;;5064029;28;20048;-87
2023/12/29 13:27:55;;;;;;;0.20;0.10;;;;;;;;;;5042682;28;20045;-84
2023/12/29 13:30:22;;;;;;;0.20;0.00;;;;;;;;;;5064486;28;20039;-85
2023/12/29 13:32:49;;;;;;;0.20;0.00;;;;;;;;;;5055501;28;20130;-84
2023/12/29 13:35:21;;;;;;;0.20;0.00;;;;;;;;;;5050895;28;20041;-86
2023/12/29 13:38:09;;;;;;;0.20;0.00;;;;;;;;;;5051628;28;20036;-86
2023/12/29 13:40:43;;;;;;;0.28;0.25;;;;;;;;;;5070292;28;20089;-84
2023/12/29 13:43:10;;;;;;;0.20;0.10;;;;;;;;;;5073383;28;20040;-85
2023/12/29 13:45:38;;;;;;;0.20;0.10;;;;;;;;;;5051859;28;20353;-86
2023/12/29 13:48:07;;;;;;;0.30;0.30;;;;;;;;;;5050937;28;20040;-87
2023/12/29 13:50:34;;;;;;;0.20;0.00;;;;;;;;;;5057639;28;20064;-85
2023/12/29 13:53:00;;;;;;;0.20;0.00;;;;;;;;;;5051864;28;20316;-84
2023/12/29 13:55:29;;;;;;;0.20;0.00;;;;;;;;;;5050536;28;20043;-86
2023/12/29 13:57:55;;;;;;;0.40;0.40;;;;;;;;;;5055271;28;20040;-83
2023/12/29 14:00:23;;;;;;;0.20;0.05;;;;;;;;;;5053721;28;20040;-86
2023/12/29 14:02:57;;;;;;;0.20;0.10;;;;;;;;;;5069698;28;20126;-82
2023/12/29 14:05:24;;;;;;;0.20;0.20;;;;;;;;;;5069610;28;20037;-85
2023/12/29 14:07:56;;;;;;;0.20;0.00;;;;;;;;;;5074812;28;20044;-85
2023/12/29 14:10:22;;;;;;;0.20;0.08;;;;;;;;;;5052587;28;20531;-86
2023/12/29 14:12:53;;;;;;;0.20;0.10;;;;;;;;;;5043492;28;20497;-87
2023/12/29 14:15:19;;;;;;;0.20;0.00;;;;;;;;;;5041518;28;20048;-86
2023/12/29 14:17:45;;;;;;;0.20;0.00;;;;;;;;;;5058749;28;20044;-85
2023/12/29 14:20:11;;;;;;;0.20;0.10;;;;;;;;;;5069465;28;20511;-85
2023/12/29 14:22:37;;;;;;;0.20;0.00;;;;;;;;;;5077620;28;20070;-85
2023/12/29 14:25:05;;;;;;;0.25;0.25;;;;;;;;;;5068312;28;20063;-84
2023/12/29 14:27:31;;;;;;;0.20;0.13;;;;;;;;;;5053613;28;20123;-86
2023/12/29 14:29:58;;;;;;;0.20;0.00;;;;;;;;;;5056440;28;20040;-84
2023/12/29 14:32:25;;;;;;;0.20;0.00;;;;;;;;;;5048079;28;20041;-85
2023/12/29 14:34:55;;;;;;;0.20;0.10;;;;;;;;;;5044237;28;20033;-84
2023/12/29 14:37:25;;;;;;;0.20;0.20;;;;;;;;;;5051777;28;20076;-87
2023/12/29 14:39:55;;;;;;;0.20;0.10;;;;;;;;;;5053540;28;20052;-87
2023/12/29 14:42:24;;;;;;;0.20;0.00;;;;;;;;;;5048327;28;20041;-86
2023/12/29 14:44:52;;;;;;;0.20;0.03;;;;;;;;;;5051591;28;20148;-88
2023/12/29 14:47:21;;;;;;;0.20;0.00;;;;;;;;;;5048290;28;20309;-87
2023/12/29 14:49:47;;;;;;;0.20;0.03;;;;;;;;;;5065409;28;20142;-84
2023/12/29 14:52:17;;;;;;;0.40;0.20;;;;;;;;;;5067593;28;20032;-86
2023/12/29 14:54:43;;;;;;;0.20;0.00;;;;;;;;;;5052096;28;20515;-86
2023/12/29 14:57:09;;;;;;;0.20;0.10;;;;;;;;;;5049956;28;20500;-88
2023/12/29 14:59:36;;;;;;;0.20;0.20;;;;;;;;;;5067723;28;20518;-85
2023/12/29 15:02:02;;;;;;;0.20;0.00;;;;;;;;;;5047638;28;20039;-86